createdAt,value
2022-09-09T00:00:42.545Z,0.00
2022-09-09T00:01:42.564Z,0.00
2022-09-09T00:02:42.705Z,0.00
2022-09-09T00:03:42.814Z,0.00
2022-09-09T00:04:42.612Z,0.00
2022-09-09T00:05:42.631Z,0.00
2022-09-09T00:06:42.649Z,0.00
2022-09-09T00:07:42.664Z,0.00
2022-09-09T00:08:42.783Z,0.00
2022-09-09T00:09:42.700Z,0.00
2022-09-09T00:10:42.720Z,0.00
2022-09-09T00:11:42.738Z,0.00
2022-09-09T00:12:42.757Z,0.00
2022-09-09T00:13:42.775Z,0.00
2022-09-09T00:14:42.793Z,0.00
2022-09-09T00:15:42.890Z,0.00
2022-09-09T00:16:42.835Z,0.00
2022-09-09T00:17:42.856Z,0.00
2022-09-09T00:18:42.874Z,0.00
2022-09-09T00:19:42.913Z,0.00
2022-09-09T00:20:42.913Z,0.00
2022-09-09T00:21:42.935Z,0.00
2022-09-09T00:22:42.961Z,0.00
2022-09-09T00:23:42.987Z,0.00
2022-09-09T00:24:43.006Z,0.00
2022-09-09T00:25:43.025Z,0.00
2022-09-09T00:26:43.042Z,0.00
2022-09-09T00:27:43.058Z,0.00
2022-09-09T00:28:43.077Z,0.00
2022-09-09T00:29:43.095Z,0.00
2022-09-09T00:30:43.174Z,0.00
2022-09-09T00:31:43.129Z,0.00
2022-09-09T00:32:43.148Z,0.00
2022-09-09T00:33:43.169Z,0.00
2022-09-09T00:34:43.194Z,0.00
2022-09-09T00:35:43.237Z,0.00
2022-09-09T00:36:43.236Z,0.00
2022-09-09T00:37:43.260Z,0.00
2022-09-09T00:38:43.282Z,0.00
2022-09-09T00:39:43.452Z,0.00
2022-09-09T00:40:43.323Z,0.00
2022-09-09T00:41:43.346Z,0.00
2022-09-09T00:42:43.372Z,0.00
2022-09-09T00:43:43.396Z,0.00
2022-09-09T00:44:43.420Z,0.00
2022-09-09T00:45:43.474Z,0.00
2022-09-09T00:46:43.478Z,0.00
2022-09-09T00:47:43.520Z,0.00
2022-09-09T00:48:43.526Z,0.00
2022-09-09T00:49:43.545Z,0.00
2022-09-09T00:50:43.566Z,0.00
2022-09-09T00:51:43.610Z,0.00
2022-09-09T00:52:43.611Z,0.00
2022-09-09T00:53:43.640Z,0.00
2022-09-09T00:54:43.659Z,0.00
2022-09-09T00:55:43.685Z,0.00
2022-09-09T00:56:43.709Z,0.00
2022-09-09T00:57:43.732Z,0.00
2022-09-09T00:58:43.755Z,0.00
2022-09-09T00:59:43.777Z,0.00
2022-09-09T01:00:43.797Z,0.00
2022-09-09T01:01:43.938Z,0.00
2022-09-09T01:02:43.901Z,0.00
2022-09-09T01:03:43.867Z,0.00
2022-09-09T01:04:43.893Z,0.00
2022-09-09T01:05:43.914Z,0.00
2022-09-09T01:06:43.929Z,0.00
2022-09-09T01:07:43.976Z,0.00
2022-09-09T01:08:43.979Z,0.00
2022-09-09T01:09:44.002Z,0.00
2022-09-09T01:10:44.029Z,0.00
2022-09-09T01:11:44.050Z,0.00
2022-09-09T01:12:44.071Z,0.00
2022-09-09T01:13:44.090Z,0.00
2022-09-09T01:14:44.110Z,0.00
2022-09-09T01:15:44.134Z,0.00
2022-09-09T01:16:44.185Z,0.00
2022-09-09T01:17:44.182Z,0.00
2022-09-09T01:18:44.206Z,0.00
2022-09-09T01:19:44.229Z,0.00
2022-09-09T01:20:44.253Z,0.00
2022-09-09T01:21:44.279Z,0.00
2022-09-09T01:22:44.304Z,0.00
2022-09-09T01:23:44.352Z,0.00
2022-09-09T01:24:44.354Z,0.00
2022-09-09T01:25:44.381Z,0.00
2022-09-09T01:26:44.403Z,0.00
2022-09-09T01:27:44.432Z,0.00
2022-09-09T01:28:44.459Z,0.00
2022-09-09T01:29:44.488Z,0.00
2022-09-09T01:30:44.577Z,0.00
2022-09-09T01:31:44.536Z,0.00
2022-09-09T01:32:44.561Z,0.00
2022-09-09T01:33:44.586Z,0.00
2022-09-09T01:34:44.608Z,0.00
2022-09-09T01:35:44.632Z,0.00
2022-09-09T01:36:44.663Z,0.00
2022-09-09T01:37:44.690Z,0.00
2022-09-09T01:38:44.716Z,0.00
2022-09-09T01:39:44.854Z,0.00
2022-09-09T01:40:44.777Z,0.00
2022-09-09T01:41:44.811Z,0.00
2022-09-09T01:42:44.838Z,0.00
2022-09-09T01:43:44.872Z,0.00
2022-09-09T01:44:44.910Z,0.00
2022-09-09T01:45:44.982Z,0.00
2022-09-09T01:46:44.955Z,0.00
2022-09-09T01:47:44.982Z,0.00
2022-09-09T01:48:45.008Z,0.00
2022-09-09T01:49:45.035Z,0.00
2022-09-09T01:50:45.062Z,0.00
2022-09-09T01:51:45.089Z,0.00
2022-09-09T01:52:45.119Z,0.00
2022-09-09T01:53:45.151Z,0.00
2022-09-09T01:54:45.185Z,0.00
2022-09-09T01:55:45.247Z,0.00
2022-09-09T01:56:45.255Z,0.00
2022-09-09T01:57:45.287Z,0.00
2022-09-09T01:58:45.327Z,0.00
2022-09-09T01:59:45.360Z,0.00
2022-09-09T02:00:45.395Z,0.00
2022-09-09T02:01:45.430Z,0.00
2022-09-09T02:02:45.509Z,0.00
2022-09-09T02:03:45.492Z,0.00
2022-09-09T02:04:45.520Z,0.00
2022-09-09T02:05:45.555Z,0.00
2022-09-09T02:06:45.572Z,0.00
2022-09-09T02:07:45.599Z,0.00
2022-09-09T02:08:45.627Z,0.00
2022-09-09T02:09:45.654Z,0.00
2022-09-09T02:10:45.682Z,0.00
2022-09-09T02:11:45.740Z,0.00
2022-09-09T02:12:45.736Z,0.00
2022-09-09T02:13:45.765Z,0.00
2022-09-09T02:14:45.796Z,0.00
2022-09-09T02:15:45.834Z,0.00
2022-09-09T02:16:45.971Z,0.00
2022-09-09T02:17:45.905Z,0.00
2022-09-09T02:18:45.935Z,0.00
2022-09-09T02:19:45.969Z,0.00
2022-09-09T02:20:46.000Z,0.00
2022-09-09T02:21:46.032Z,0.00
2022-09-09T02:22:46.137Z,0.00
2022-09-09T02:23:46.100Z,0.00
2022-09-09T02:24:46.133Z,0.00
2022-09-09T02:25:46.173Z,0.00
2022-09-09T02:26:46.207Z,0.00
2022-09-09T02:27:46.267Z,0.00
2022-09-09T02:28:46.276Z,0.00
2022-09-09T02:29:46.317Z,0.00
2022-09-09T02:30:46.418Z,0.00
2022-09-09T02:31:46.387Z,0.00
2022-09-09T02:32:46.428Z,0.00
2022-09-09T02:33:46.461Z,0.00
2022-09-09T02:34:46.497Z,0.00
2022-09-09T02:35:46.538Z,0.00
2022-09-09T02:36:46.571Z,0.00
2022-09-09T02:37:46.604Z,0.00
2022-09-09T02:38:46.644Z,0.00
2022-09-09T02:39:46.739Z,0.00
2022-09-09T02:40:46.710Z,0.00
2022-09-09T02:41:46.744Z,0.00
2022-09-09T02:42:46.774Z,0.00
2022-09-09T02:43:46.830Z,0.00
2022-09-09T02:44:46.838Z,0.00
2022-09-09T02:45:46.915Z,0.00
2022-09-09T02:46:46.902Z,0.00
2022-09-09T02:47:46.935Z,0.00
2022-09-09T02:48:46.969Z,0.00
2022-09-09T02:49:47.003Z,0.00
2022-09-09T02:50:47.033Z,0.00
2022-09-09T02:51:47.067Z,0.00
2022-09-09T02:52:47.098Z,0.00
2022-09-09T02:53:47.129Z,0.00
2022-09-09T02:54:47.155Z,0.00
2022-09-09T02:55:47.190Z,0.00
2022-09-09T02:56:47.223Z,0.00
2022-09-09T02:57:47.253Z,0.00
2022-09-09T02:58:47.285Z,0.00
2022-09-09T02:59:47.343Z,0.00
2022-09-09T03:00:47.370Z,0.00
2022-09-09T03:01:47.378Z,0.00
2022-09-09T03:02:47.433Z,0.00
2022-09-09T03:03:47.437Z,0.00
2022-09-09T03:04:47.468Z,0.00
2022-09-09T03:05:47.505Z,0.00
2022-09-09T03:06:47.533Z,0.00
2022-09-09T03:07:47.565Z,0.00
2022-09-09T03:08:49.515Z,0.00
2022-09-09T03:09:47.631Z,0.00
2022-09-09T03:10:47.668Z,0.00
2022-09-09T03:11:47.703Z,0.00
2022-09-09T03:12:47.738Z,0.00
2022-09-09T03:13:47.770Z,0.00
2022-09-09T03:14:47.796Z,0.00
2022-09-09T03:15:47.846Z,0.00
2022-09-09T03:16:47.944Z,0.00
2022-09-09T03:17:47.875Z,0.00
2022-09-09T03:18:47.910Z,0.00
2022-09-09T03:19:47.937Z,0.00
2022-09-09T03:20:47.959Z,0.00
2022-09-09T03:21:47.987Z,0.00
2022-09-09T03:22:48.018Z,0.00
2022-09-09T03:23:48.040Z,0.00
2022-09-09T03:24:48.069Z,0.00
2022-09-09T03:25:48.097Z,0.00
2022-09-09T03:26:48.128Z,0.00
2022-09-09T03:27:48.159Z,0.00
2022-09-09T03:28:48.189Z,0.00
2022-09-09T03:29:48.226Z,0.00
2022-09-09T03:30:48.265Z,0.00
2022-09-09T03:31:48.340Z,0.00
2022-09-09T03:32:49.068Z,0.00
2022-09-09T03:33:48.348Z,0.00
2022-09-09T03:34:48.385Z,0.00
2022-09-09T03:35:48.416Z,0.00
2022-09-09T03:36:48.449Z,0.00
2022-09-09T03:37:48.481Z,0.00
2022-09-09T03:38:48.511Z,0.00
2022-09-09T03:39:48.600Z,0.00
2022-09-09T03:40:48.579Z,0.00
2022-09-09T03:41:48.620Z,0.00
2022-09-09T03:42:48.656Z,0.00
2022-09-09T03:43:48.684Z,0.00
2022-09-09T03:44:48.717Z,0.00
2022-09-09T03:45:48.799Z,0.00
2022-09-09T03:46:48.781Z,0.00
2022-09-09T03:47:48.837Z,0.00
2022-09-09T03:48:48.845Z,0.00
2022-09-09T03:49:48.880Z,0.00
2022-09-09T03:50:48.909Z,0.00
2022-09-09T03:51:48.941Z,0.00
2022-09-09T03:52:48.973Z,0.00
2022-09-09T03:53:49.007Z,0.00
2022-09-09T03:54:49.035Z,0.00
2022-09-09T03:55:49.067Z,0.00
2022-09-09T03:56:49.099Z,0.00
2022-09-09T03:57:49.125Z,0.00
2022-09-09T03:58:49.151Z,0.00
2022-09-09T03:59:49.180Z,0.00
2022-09-09T04:00:49.285Z,0.00
2022-09-09T04:01:49.290Z,0.00
2022-09-09T04:02:49.260Z,0.00
2022-09-09T04:03:49.317Z,0.00
2022-09-09T04:04:49.318Z,0.00
2022-09-09T04:05:49.349Z,0.00
2022-09-09T04:06:49.381Z,0.00
2022-09-09T04:07:49.414Z,0.00
2022-09-09T04:08:49.464Z,0.00
2022-09-09T04:09:49.469Z,0.00
2022-09-09T04:10:49.498Z,0.00
2022-09-09T04:11:49.525Z,0.00
2022-09-09T04:12:49.715Z,0.00
2022-09-09T04:13:49.575Z,0.00
2022-09-09T04:14:49.600Z,0.00
2022-09-09T04:15:49.625Z,0.00
2022-09-09T04:16:49.695Z,0.00
2022-09-09T04:17:49.677Z,0.00
2022-09-09T04:18:49.699Z,0.00
2022-09-09T04:19:49.752Z,0.00
2022-09-09T04:20:49.752Z,0.00
2022-09-09T04:21:49.777Z,0.00
2022-09-09T04:22:49.802Z,0.00
2022-09-09T04:23:49.831Z,0.00
2022-09-09T04:24:49.857Z,0.00
2022-09-09T04:25:49.877Z,0.00
2022-09-09T04:26:49.906Z,0.00
2022-09-09T04:27:49.935Z,0.00
2022-09-09T04:28:49.961Z,0.00
2022-09-09T04:29:49.985Z,0.00
2022-09-09T04:30:50.012Z,0.00
2022-09-09T04:31:50.112Z,0.00
2022-09-09T04:32:50.063Z,0.00
2022-09-09T04:33:50.091Z,0.00
2022-09-09T04:34:50.114Z,0.00
2022-09-09T04:35:50.168Z,0.00
2022-09-09T04:36:50.166Z,0.00
2022-09-09T04:37:50.196Z,0.00
2022-09-09T04:38:50.231Z,0.00
2022-09-09T04:39:50.293Z,0.00
2022-09-09T04:40:50.281Z,0.00
2022-09-09T04:41:50.307Z,0.00
2022-09-09T04:42:50.334Z,0.00
2022-09-09T04:43:50.361Z,0.00
2022-09-09T04:44:50.390Z,0.00
2022-09-09T04:45:50.445Z,5.62
2022-09-09T04:46:50.446Z,5.62
2022-09-09T04:47:50.473Z,5.62
2022-09-09T04:48:50.500Z,5.62
2022-09-09T04:49:50.521Z,5.62
2022-09-09T04:50:50.543Z,5.62
2022-09-09T04:51:50.598Z,5.62
2022-09-09T04:52:50.593Z,5.62
2022-09-09T04:53:50.624Z,11.25
2022-09-09T04:54:50.646Z,11.25
2022-09-09T04:55:50.670Z,11.25
2022-09-09T04:56:50.698Z,11.25
2022-09-09T04:57:50.721Z,11.25
2022-09-09T04:58:50.754Z,16.87
2022-09-09T04:59:50.765Z,16.87
2022-09-09T05:00:50.854Z,16.87
2022-09-09T05:01:50.833Z,22.50
2022-09-09T05:02:50.836Z,22.50
2022-09-09T05:03:50.858Z,22.50
2022-09-09T05:04:50.884Z,22.50
2022-09-09T05:05:50.908Z,28.12
2022-09-09T05:06:50.932Z,28.12
2022-09-09T05:07:50.980Z,33.75
2022-09-09T05:08:50.978Z,33.75
2022-09-09T05:09:51.001Z,39.37
2022-09-09T05:10:51.028Z,45.00
2022-09-09T05:11:51.049Z,50.62
2022-09-09T05:12:51.072Z,50.62
2022-09-09T05:13:51.105Z,56.25
2022-09-09T05:14:51.112Z,56.25
2022-09-09T05:15:51.213Z,56.25
2022-09-09T05:16:51.152Z,56.25
2022-09-09T05:17:51.172Z,56.25
2022-09-09T05:18:51.191Z,56.25
2022-09-09T05:19:51.216Z,56.25
2022-09-09T05:20:51.238Z,56.25
2022-09-09T05:21:51.274Z,56.25
2022-09-09T05:22:51.277Z,61.87
2022-09-09T05:23:51.323Z,61.87
2022-09-09T05:24:51.317Z,61.87
2022-09-09T05:25:51.334Z,61.87
2022-09-09T05:26:51.352Z,56.25
2022-09-09T05:27:51.365Z,61.87
2022-09-09T05:28:51.386Z,61.87
2022-09-09T05:29:51.397Z,61.87
2022-09-09T05:30:51.413Z,61.87
2022-09-09T05:31:51.517Z,61.87
2022-09-09T05:32:51.440Z,61.87
2022-09-09T05:33:51.460Z,61.87
2022-09-09T05:34:51.483Z,61.87
2022-09-09T05:35:51.493Z,61.87
2022-09-09T05:36:51.509Z,61.87
2022-09-09T05:37:51.523Z,61.87
2022-09-09T05:38:51.546Z,61.87
2022-09-09T05:39:51.630Z,61.87
2022-09-09T05:40:51.587Z,67.50
2022-09-09T05:41:51.601Z,73.12
2022-09-09T05:42:51.622Z,78.75
2022-09-09T05:43:51.636Z,84.37
2022-09-09T05:44:51.655Z,90.00
2022-09-09T05:45:51.667Z,90.00
2022-09-09T05:46:51.744Z,95.62
2022-09-09T05:47:51.695Z,95.62
2022-09-09T05:48:51.711Z,95.62
2022-09-09T05:49:51.792Z,95.62
2022-09-09T05:50:51.723Z,101.25
2022-09-09T05:51:51.728Z,106.87
2022-09-09T05:52:51.730Z,106.87
2022-09-09T05:53:51.732Z,112.50
2022-09-09T05:54:51.732Z,112.50
2022-09-09T05:55:51.780Z,118.12
2022-09-09T05:56:52.031Z,118.12
2022-09-09T05:57:51.764Z,123.75
2022-09-09T05:58:51.769Z,129.37
2022-09-09T05:59:51.778Z,135.00
2022-09-09T06:00:51.783Z,146.25
2022-09-09T06:01:51.980Z,157.50
2022-09-09T06:02:52.046Z,157.50
2022-09-09T06:03:51.810Z,168.75
2022-09-09T06:04:51.829Z,174.37
2022-09-09T06:05:51.824Z,174.37
2022-09-09T06:06:51.830Z,174.37
2022-09-09T06:07:51.835Z,185.62
2022-09-09T06:08:51.844Z,185.62
2022-09-09T06:09:51.853Z,191.25
2022-09-09T06:10:51.878Z,196.87
2022-09-09T06:11:51.899Z,202.50
2022-09-09T06:12:51.882Z,202.50
2022-09-09T06:13:51.891Z,219.37
2022-09-09T06:14:51.896Z,219.37
2022-09-09T06:15:51.972Z,219.37
2022-09-09T06:16:51.922Z,230.62
2022-09-09T06:17:51.922Z,241.87
2022-09-09T06:18:51.928Z,247.50
2022-09-09T06:19:51.934Z,258.75
2022-09-09T06:20:51.942Z,264.37
2022-09-09T06:21:51.948Z,275.62
2022-09-09T06:22:51.956Z,275.62
2022-09-09T06:23:51.959Z,275.62
2022-09-09T06:24:51.968Z,275.62
2022-09-09T06:25:51.977Z,270.00
2022-09-09T06:26:51.987Z,275.62
2022-09-09T06:27:52.022Z,281.25
2022-09-09T06:28:52.000Z,292.50
2022-09-09T06:29:52.004Z,303.75
2022-09-09T06:30:52.005Z,309.37
2022-09-09T06:31:52.075Z,309.37
2022-09-09T06:32:52.009Z,315.00
2022-09-09T06:33:52.009Z,320.62
2022-09-09T06:34:52.009Z,326.25
2022-09-09T06:35:52.009Z,331.87
2022-09-09T06:36:52.003Z,348.75
2022-09-09T06:37:51.999Z,360.00
2022-09-09T06:38:51.993Z,360.00
2022-09-09T06:39:52.035Z,365.62
2022-09-09T06:40:51.984Z,371.25
2022-09-09T06:41:51.977Z,376.87
2022-09-09T06:42:51.972Z,382.50
2022-09-09T06:43:51.991Z,393.75
2022-09-09T06:44:51.957Z,405.00
2022-09-09T06:45:51.945Z,416.25
2022-09-09T06:46:51.962Z,421.87
2022-09-09T06:47:51.919Z,416.25
2022-09-09T06:48:51.903Z,416.25
2022-09-09T06:49:51.892Z,410.62
2022-09-09T06:50:51.875Z,399.37
2022-09-09T06:51:51.856Z,399.37
2022-09-09T06:52:51.840Z,393.75
2022-09-09T06:53:51.821Z,399.37
2022-09-09T06:54:51.800Z,388.12
2022-09-09T06:55:51.781Z,388.12
2022-09-09T06:56:51.764Z,371.25
2022-09-09T06:57:51.749Z,371.25
2022-09-09T06:58:51.763Z,388.12
2022-09-09T06:59:51.745Z,410.62
2022-09-09T07:00:51.789Z,416.25
2022-09-09T07:01:55.631Z,427.50
2022-09-09T07:02:51.678Z,427.50
2022-09-09T07:03:51.667Z,433.12
2022-09-09T07:04:51.648Z,427.50
2022-09-09T07:05:51.632Z,427.50
2022-09-09T07:06:51.620Z,427.50
2022-09-09T07:07:51.601Z,421.87
2022-09-09T07:08:56.292Z,427.50
2022-09-09T07:09:53.561Z,450.00
2022-09-09T07:10:51.543Z,466.87
2022-09-09T07:11:51.525Z,466.87
2022-09-09T07:12:51.505Z,466.87
2022-09-09T07:13:51.485Z,500.62
2022-09-09T07:14:51.461Z,534.37
2022-09-09T07:15:51.564Z,562.50
2022-09-09T07:16:51.426Z,551.25
2022-09-09T07:17:51.400Z,545.62
2022-09-09T07:18:51.380Z,534.37
2022-09-09T07:19:51.359Z,523.12
2022-09-09T07:20:51.339Z,523.12
2022-09-09T07:21:51.317Z,506.25
2022-09-09T07:22:51.295Z,438.75
2022-09-09T07:23:51.268Z,410.62
2022-09-09T07:24:51.241Z,388.12
2022-09-09T07:25:51.219Z,399.37
2022-09-09T07:26:51.203Z,523.12
2022-09-09T07:27:51.179Z,399.37
2022-09-09T07:28:51.161Z,433.12
2022-09-09T07:29:51.145Z,641.25
2022-09-09T07:30:51.129Z,753.75
2022-09-09T07:31:51.135Z,821.25
2022-09-09T07:32:51.089Z,613.12
2022-09-09T07:33:51.059Z,585.00
2022-09-09T07:34:51.029Z,691.87
2022-09-09T07:35:50.993Z,562.50
2022-09-09T07:36:50.966Z,540.00
2022-09-09T07:37:51.221Z,489.37
2022-09-09T07:38:50.904Z,466.87
2022-09-09T07:39:50.940Z,433.12
2022-09-09T07:40:50.852Z,421.87
2022-09-09T07:41:50.824Z,438.75
2022-09-09T07:42:50.798Z,438.75
2022-09-09T07:43:50.770Z,438.75
2022-09-09T07:44:50.746Z,433.12
2022-09-09T07:45:50.725Z,478.12
2022-09-09T07:46:50.773Z,528.75
2022-09-09T07:47:50.705Z,551.25
2022-09-09T07:48:50.653Z,658.12
2022-09-09T07:49:50.637Z,523.12
2022-09-09T07:50:50.606Z,461.25
2022-09-09T07:51:50.582Z,438.75
2022-09-09T07:52:50.550Z,455.62
2022-09-09T07:53:50.519Z,455.62
2022-09-09T07:54:50.489Z,461.25
2022-09-09T07:55:50.461Z,461.25
2022-09-09T07:56:50.432Z,461.25
2022-09-09T07:57:50.398Z,478.12
2022-09-09T07:58:50.366Z,483.75
2022-09-09T07:59:52.335Z,483.75
2022-09-09T08:00:50.303Z,511.87
2022-09-09T08:01:50.308Z,511.87
2022-09-09T08:02:50.303Z,686.25
2022-09-09T08:03:55.926Z,686.25
2022-09-09T08:04:51.198Z,877.50
2022-09-09T08:05:50.150Z,900.00
2022-09-09T08:06:50.110Z,1001.25
2022-09-09T08:07:50.070Z,1136.25
2022-09-09T08:08:50.032Z,967.50
2022-09-09T08:09:49.989Z,871.87
2022-09-09T08:10:49.945Z,1518.75
2022-09-09T08:11:49.901Z,1226.25
2022-09-09T08:13:07.935Z,1248.75
2022-09-09T08:13:53.966Z,658.12
2022-09-09T08:14:49.731Z,613.12
2022-09-09T08:15:49.725Z,590.62
2022-09-09T08:16:49.609Z,641.25
2022-09-09T08:17:49.550Z,731.25
2022-09-09T08:18:49.494Z,900.00
2022-09-09T08:19:49.462Z,900.00
2022-09-09T08:20:49.378Z,815.62
2022-09-09T08:21:49.322Z,810.00
2022-09-09T08:22:49.264Z,759.37
2022-09-09T08:23:49.206Z,720.00
2022-09-09T08:24:49.156Z,691.87
2022-09-09T08:25:49.094Z,691.87
2022-09-09T08:26:49.038Z,703.12
2022-09-09T08:27:48.984Z,708.75
2022-09-09T08:28:48.931Z,714.37
2022-09-09T08:29:48.878Z,798.75
2022-09-09T08:30:48.919Z,1417.50
2022-09-09T08:31:48.768Z,1603.12
2022-09-09T08:32:50.757Z,911.25
2022-09-09T08:33:53.175Z,821.25
2022-09-09T08:34:48.602Z,1912.50
2022-09-09T08:35:49.627Z,1833.75
2022-09-09T08:36:48.475Z,1659.37
2022-09-09T08:37:51.465Z,1130.62
2022-09-09T08:38:48.331Z,1912.50
2022-09-09T08:39:48.317Z,821.25
2022-09-09T08:40:48.177Z,1845.00
2022-09-09T08:41:48.095Z,1023.75
2022-09-09T08:42:48.011Z,1023.75
2022-09-09T08:43:47.921Z,2283.75
2022-09-09T08:44:49.026Z,2171.25
2022-09-09T08:45:47.739Z,1845.00
2022-09-09T08:46:47.700Z,1333.12
2022-09-09T08:47:47.540Z,849.37
2022-09-09T08:48:47.441Z,866.25
2022-09-09T08:49:47.352Z,855.00
2022-09-09T08:50:47.254Z,843.75
2022-09-09T08:51:47.186Z,1760.62
2022-09-09T08:52:47.068Z,933.75
2022-09-09T08:53:46.980Z,1395.00
2022-09-09T08:54:52.614Z,1890.00
2022-09-09T08:55:46.791Z,2120.62
2022-09-09T08:56:46.687Z,2340.00
2022-09-09T08:57:46.582Z,2295.00
2022-09-09T08:58:46.470Z,2390.62
2022-09-09T08:59:46.354Z,2227.50
2022-09-09T09:00:46.241Z,2244.37
2022-09-09T09:01:46.200Z,2289.37
2022-09-09T09:02:45.997Z,1636.87
2022-09-09T09:03:45.873Z,1057.50
2022-09-09T09:04:45.835Z,1428.75
2022-09-09T09:05:45.635Z,618.75
2022-09-09T09:06:45.519Z,545.62
2022-09-09T09:07:45.432Z,624.37
2022-09-09T09:08:45.293Z,720.00
2022-09-09T09:09:45.187Z,703.12
2022-09-09T09:10:45.090Z,933.75
2022-09-09T09:11:44.983Z,1715.62
2022-09-09T09:12:44.883Z,984.37
2022-09-09T09:13:44.778Z,1670.62
2022-09-09T09:14:45.223Z,2199.37
2022-09-09T09:15:44.590Z,2120.62
2022-09-09T09:16:44.438Z,2362.50
2022-09-09T09:17:44.323Z,2227.50
2022-09-09T09:18:44.195Z,2649.37
2022-09-09T09:19:44.072Z,2025.00
2022-09-09T09:20:43.935Z,2660.62
2022-09-09T09:21:43.798Z,2626.87
2022-09-09T09:22:43.658Z,860.62
2022-09-09T09:23:43.547Z,2345.62
2022-09-09T09:24:43.434Z,2148.75
2022-09-09T09:25:43.259Z,759.37
2022-09-09T09:26:43.129Z,2205.00
2022-09-09T09:27:43.000Z,714.37
2022-09-09T09:28:42.872Z,1963.12
2022-09-09T09:30:10.052Z,1743.75
2022-09-09T09:30:43.720Z,2255.62
2022-09-09T09:31:44.508Z,2278.12
2022-09-09T09:32:42.386Z,2081.25
2022-09-09T09:33:42.267Z,2283.75
2022-09-09T09:34:42.140Z,787.50
2022-09-09T09:35:44.396Z,1552.50
2022-09-09T09:36:41.892Z,810.00
2022-09-09T09:40:42.427Z,2632.50
2022-09-09T09:41:41.288Z,877.50
2022-09-09T09:42:41.166Z,838.12
2022-09-09T09:43:41.038Z,714.37
2022-09-09T09:44:40.915Z,731.25
2022-09-09T09:45:43.930Z,1732.50
2022-09-09T09:46:40.692Z,855.00
2022-09-09T09:47:40.558Z,691.87
2022-09-09T09:48:40.443Z,832.50
2022-09-09T09:49:40.332Z,1085.62
2022-09-09T09:50:40.222Z,3043.12
2022-09-09T09:51:40.117Z,1192.50
2022-09-09T09:52:40.004Z,1113.75
2022-09-09T09:53:39.897Z,888.75
2022-09-09T09:54:39.786Z,1018.12
2022-09-09T09:55:39.703Z,793.12
2022-09-09T09:56:39.625Z,742.50
2022-09-09T09:57:39.497Z,888.75
2022-09-09T09:58:39.351Z,849.37
2022-09-09T09:59:40.329Z,978.75
2022-09-09T10:00:39.133Z,2941.87
2022-09-09T10:01:39.079Z,3105.00
2022-09-09T10:02:38.899Z,2958.75
2022-09-09T10:03:38.772Z,2227.50
2022-09-09T10:04:38.699Z,1186.87
2022-09-09T10:05:38.503Z,3279.37
2022-09-09T10:06:38.358Z,3301.87
2022-09-09T10:07:38.211Z,3127.50
2022-09-09T10:08:38.262Z,3155.62
2022-09-09T10:09:37.895Z,1411.87
2022-09-09T10:10:37.732Z,3166.87
2022-09-09T10:11:37.603Z,3048.75
2022-09-09T10:12:37.427Z,2610.00
2022-09-09T10:13:37.247Z,2120.62
2022-09-09T10:14:37.035Z,1316.25
2022-09-09T10:15:36.885Z,1783.12
2022-09-09T10:16:36.672Z,3138.75
2022-09-09T10:17:36.488Z,1513.12
2022-09-09T10:18:36.454Z,2362.50
2022-09-09T10:19:36.121Z,2508.75
2022-09-09T10:20:35.937Z,2143.12
2022-09-09T10:21:35.762Z,2176.87
2022-09-09T10:22:35.585Z,2688.75
2022-09-09T10:23:35.410Z,2553.75
2022-09-09T10:24:35.226Z,3138.75
2022-09-09T10:25:35.038Z,3363.75
2022-09-09T10:26:34.849Z,1170.00
2022-09-09T10:27:34.692Z,3425.62
2022-09-09T10:28:34.625Z,967.50
2022-09-09T10:29:34.326Z,2941.87
2022-09-09T10:30:34.200Z,3358.12
2022-09-09T10:31:33.968Z,843.75
2022-09-09T10:32:33.795Z,1676.25
2022-09-09T10:33:33.675Z,3403.12
2022-09-09T10:34:33.452Z,2992.50
2022-09-09T10:35:33.275Z,1170.00
2022-09-09T10:36:33.106Z,1102.50
2022-09-09T10:37:32.937Z,3628.12
2022-09-09T10:38:32.760Z,1676.25
2022-09-09T10:39:32.666Z,3667.50
2022-09-09T10:40:32.402Z,3161.25
2022-09-09T10:41:32.215Z,3431.25
2022-09-09T10:42:32.021Z,3414.37
2022-09-09T10:43:31.851Z,3380.62
2022-09-09T10:44:31.622Z,3656.25
2022-09-09T10:45:31.411Z,3650.62
2022-09-09T10:46:31.275Z,3639.37
2022-09-09T10:47:30.979Z,3313.12
2022-09-09T10:48:30.752Z,4010.62
2022-09-09T10:49:30.616Z,3971.25
2022-09-09T10:50:57.137Z,3796.87
2022-09-09T10:51:31.074Z,3813.75
2022-09-09T10:52:29.826Z,3915.00
2022-09-09T10:53:29.631Z,3729.37
2022-09-09T10:54:29.339Z,3678.75
2022-09-09T10:55:30.011Z,3678.75
2022-09-09T10:56:28.845Z,3436.87
2022-09-09T10:57:28.595Z,3397.50
2022-09-09T10:58:28.360Z,1147.50
2022-09-09T10:59:28.134Z,2953.12
2022-09-09T11:00:27.882Z,2351.25
2022-09-09T11:01:27.718Z,2553.75
2022-09-09T11:02:27.437Z,1333.12
2022-09-09T11:03:27.221Z,2362.50
2022-09-09T11:04:27.076Z,2053.12
2022-09-09T11:05:26.809Z,2508.75
2022-09-09T11:06:26.674Z,2722.50
2022-09-09T11:07:26.428Z,2615.62
2022-09-09T11:08:26.198Z,2604.37
2022-09-09T11:09:26.002Z,2188.12
2022-09-09T11:10:26.174Z,866.25
2022-09-09T11:11:25.622Z,781.87
2022-09-09T11:12:25.449Z,725.62
2022-09-09T11:13:25.284Z,736.87
2022-09-09T11:14:25.129Z,787.50
2022-09-09T11:15:25.009Z,815.62
2022-09-09T11:16:24.892Z,826.87
2022-09-09T11:17:24.727Z,849.37
2022-09-09T11:18:24.607Z,922.50
2022-09-09T11:19:24.493Z,1524.37
2022-09-09T11:20:24.370Z,1006.87
2022-09-09T11:21:24.271Z,1704.37
2022-09-09T11:22:24.143Z,2812.50
2022-09-09T11:23:24.018Z,2812.50
2022-09-09T11:24:23.892Z,832.50
2022-09-09T11:25:23.768Z,731.25
2022-09-09T11:26:23.645Z,669.37
2022-09-09T11:27:23.536Z,607.50
2022-09-09T11:28:23.440Z,624.37
2022-09-09T11:29:23.329Z,725.62
2022-09-09T11:30:51.172Z,928.12
2022-09-09T11:31:24.199Z,2559.37
2022-09-09T11:32:23.023Z,2221.87
2022-09-09T11:33:22.915Z,1237.50
2022-09-09T11:34:22.803Z,1546.87
2022-09-09T11:35:22.688Z,1546.87
2022-09-09T11:36:24.572Z,2143.12
2022-09-09T11:37:22.451Z,1158.75
2022-09-09T11:38:22.334Z,967.50
2022-09-09T11:39:22.220Z,905.62
2022-09-09T11:40:22.101Z,1125.00
2022-09-09T11:41:22.157Z,3600.00
2022-09-09T11:42:21.865Z,1777.50
2022-09-09T11:43:21.729Z,1321.87
2022-09-09T11:44:21.594Z,1096.87
2022-09-09T11:45:21.466Z,1091.25
2022-09-09T11:46:21.378Z,1220.62
2022-09-09T11:47:21.234Z,1305.00
2022-09-09T11:48:21.088Z,1288.12
2022-09-09T11:49:20.969Z,2593.12
2022-09-09T11:50:20.838Z,3594.37
2022-09-09T11:51:20.701Z,4005.00
2022-09-09T11:52:20.549Z,3757.50
2022-09-09T11:53:20.387Z,1361.25
2022-09-09T11:54:20.220Z,1428.75
2022-09-09T11:55:20.513Z,3695.62
2022-09-09T11:56:19.856Z,3690.00
2022-09-09T11:57:19.663Z,3757.50
2022-09-09T11:58:19.467Z,3886.87
2022-09-09T11:59:19.257Z,3813.75
2022-09-09T12:00:19.042Z,3875.62
2022-09-09T12:01:18.824Z,3931.87
2022-09-09T12:02:18.679Z,2238.75
2022-09-09T12:03:18.406Z,1170.00
2022-09-09T12:04:21.992Z,1378.12
2022-09-09T12:05:18.033Z,2238.75
2022-09-09T12:06:17.781Z,1012.50
2022-09-09T12:07:17.600Z,815.62
2022-09-09T12:08:17.426Z,742.50
2022-09-09T12:09:17.270Z,759.37
2022-09-09T12:10:17.112Z,810.00
2022-09-09T12:11:16.967Z,883.12
2022-09-09T12:12:16.830Z,1023.75
2022-09-09T12:13:16.694Z,1164.37
2022-09-09T12:14:16.561Z,1350.00
2022-09-09T12:15:16.430Z,1681.87
2022-09-09T12:16:18.348Z,3982.50
2022-09-09T12:17:16.150Z,1935.00
2022-09-09T12:18:16.002Z,1636.87
2022-09-09T12:19:15.883Z,1372.50
2022-09-09T12:20:15.721Z,1327.50
2022-09-09T12:21:15.586Z,2351.25
2022-09-09T12:22:15.525Z,1569.37
2022-09-09T12:23:15.314Z,1451.25
2022-09-09T12:24:15.185Z,1440.00
2022-09-09T12:25:15.054Z,1445.62
2022-09-09T12:26:14.919Z,1546.87
2022-09-09T12:27:14.785Z,4516.87
2022-09-09T12:28:14.636Z,4455.00
2022-09-09T12:29:14.468Z,4207.50
2022-09-09T12:30:14.399Z,4342.50
2022-09-09T12:31:14.133Z,4365.00
2022-09-09T12:32:13.915Z,3819.37
2022-09-09T12:33:13.644Z,2621.25
2022-09-09T12:34:13.424Z,2660.62
2022-09-09T12:35:13.231Z,1974.37
2022-09-09T12:36:12.997Z,1681.87
2022-09-09T12:37:12.799Z,3200.62
2022-09-09T12:38:12.586Z,2542.50
2022-09-09T12:39:12.376Z,2486.25
2022-09-09T12:40:12.214Z,2885.62
2022-09-09T12:41:11.966Z,3600.00
2022-09-09T12:42:11.755Z,2581.87
2022-09-09T12:43:11.549Z,1828.12
2022-09-09T12:44:11.346Z,1170.00
2022-09-09T12:45:11.157Z,1035.00